Wayne, Nebraska
Current Conditions -  °F | °C
As of 6:35 AM on Monday 22 Dec 2014 (Local Time) from KLCG Reporting Station
Moderate Rain Moderate Rain  
Wind Chill: 37°   Ceiling: 500
Heat Index: 42°   Visibility: 5mi
Dew Point: 41°   Wind: 8mph
Humidity: 97%   Direction: 190°S
Pressure: 29.48"   Gusts: NA
Location:  42.23°N, 97.02°W
Report Text: KLCG 221235Z AUTO 19007KT 5SM RA OVC005 05/05 A2948 RMK AO2 P0004 T00540050
Loading
Personal Weather Stations






























Interactive Weather Map New forecast layout! Learn more

10-Day Weather Forecast

Advertisements
Track Severe Weather on mobile